createdAt,value
2019-05-10T00:00:08.889Z,11.34
2019-05-10T00:02:54.181Z,9.93
2019-05-10T00:05:39.908Z,11.31
2019-05-10T00:08:25.546Z,11.30
2019-05-10T00:11:00.702Z,11.30
2019-05-10T00:13:28.826Z,11.26
2019-05-10T00:15:56.469Z,11.20
2019-05-10T00:18:24.282Z,11.16
2019-05-10T00:20:51.984Z,11.13
2019-05-10T00:23:19.416Z,11.12
2019-05-10T00:25:46.140Z,11.06
2019-05-10T00:28:14.015Z,11.03
2019-05-10T00:30:41.610Z,11.01
2019-05-10T00:33:09.386Z,10.97
2019-05-10T00:35:36.710Z,10.97
2019-05-10T00:38:04.304Z,10.94
2019-05-10T00:40:31.513Z,10.93
2019-05-10T00:42:58.657Z,10.91
2019-05-10T00:45:26.067Z,10.87
2019-05-10T00:47:53.267Z,10.83
2019-05-10T00:50:21.043Z,10.79
2019-05-10T00:52:48.709Z,10.76
2019-05-10T00:55:18.901Z,10.75
2019-05-10T00:57:45.670Z,10.73
2019-05-10T01:00:15.170Z,10.69
2019-05-10T01:02:42.003Z,10.67
2019-05-10T01:05:10.033Z,10.67
2019-05-10T01:07:36.828Z,10.64
2019-05-10T01:10:06.094Z,10.62
2019-05-10T01:12:33.863Z,10.61
2019-05-10T01:15:01.387Z,10.62
2019-05-10T01:17:28.892Z,10.61
2019-05-10T01:19:56.852Z,10.62
2019-05-10T01:22:23.707Z,10.63
2019-05-10T01:24:51.571Z,10.64
2019-05-10T01:27:19.537Z,10.66
2019-05-10T01:29:47.316Z,10.65
2019-05-10T01:32:15.192Z,10.69
2019-05-10T01:34:42.721Z,10.69
2019-05-10T01:37:10.701Z,10.72
2019-05-10T01:39:38.073Z,10.73
2019-05-10T01:42:05.830Z,10.75
2019-05-10T01:44:33.811Z,10.75
2019-05-10T01:47:01.354Z,10.77
2019-05-10T01:49:28.947Z,10.78
2019-05-10T01:51:56.699Z,10.78
2019-05-10T01:54:24.371Z,10.80
2019-05-10T01:56:51.963Z,10.81
2019-05-10T01:59:19.940Z,10.82
2019-05-10T02:01:47.520Z,10.83
2019-05-10T02:04:17.573Z,10.84
2019-05-10T02:06:45.289Z,10.84
2019-05-10T02:09:13.526Z,10.87
2019-05-10T02:11:41.469Z,10.88
2019-05-10T02:14:09.430Z,10.87
2019-05-10T02:16:37.779Z,10.90
2019-05-10T02:19:05.250Z,10.90
2019-05-10T02:21:33.238Z,10.92
2019-05-10T02:24:00.884Z,10.92
2019-05-10T02:26:29.061Z,10.92
2019-05-10T02:28:57.036Z,10.94
2019-05-10T02:31:24.975Z,10.94
2019-05-10T02:33:52.465Z,10.94
2019-05-10T02:36:20.283Z,10.95
2019-05-10T02:38:48.172Z,10.96
2019-05-10T02:41:15.856Z,10.96
2019-05-10T02:43:43.275Z,10.98
2019-05-10T02:46:11.086Z,10.97
2019-05-10T02:48:39.058Z,9.48
2019-05-10T02:51:05.981Z,10.99
2019-05-10T02:53:33.875Z,10.98
2019-05-10T02:56:02.700Z,10.98
2019-05-10T02:58:31.092Z,11.01
2019-05-10T03:01:01.644Z,10.99
2019-05-10T03:03:30.672Z,10.99
2019-05-10T03:05:59.991Z,10.99
2019-05-10T03:08:30.438Z,10.99
2019-05-10T03:10:58.703Z,10.99
2019-05-10T03:13:28.023Z,10.99
2019-05-10T03:15:56.105Z,10.98
2019-05-10T03:18:26.458Z,10.98
2019-05-10T03:20:56.964Z,10.98
2019-05-10T03:23:25.434Z,10.97
2019-05-10T03:25:53.026Z,10.97
2019-05-10T03:28:19.990Z,10.98
2019-05-10T03:30:47.783Z,10.99
2019-05-10T03:33:15.882Z,11.00
2019-05-10T03:35:43.398Z,10.99
2019-05-10T03:38:10.594Z,10.99
2019-05-10T03:40:37.573Z,11.00
2019-05-10T03:43:04.964Z,11.02
2019-05-10T03:45:31.835Z,11.02
2019-05-10T03:47:59.029Z,11.05
2019-05-10T03:50:26.103Z,11.04
2019-05-10T03:52:53.097Z,11.05
2019-05-10T03:55:20.353Z,11.06
2019-05-10T03:57:47.664Z,11.06
2019-05-10T04:00:15.508Z,11.07
2019-05-10T04:02:42.613Z,11.07
2019-05-10T04:05:09.442Z,11.08
2019-05-10T04:07:36.586Z,11.07
2019-05-10T04:10:08.265Z,11.08
2019-05-10T04:12:35.220Z,9.69
2019-05-10T04:15:03.329Z,11.08
2019-05-10T04:17:30.231Z,11.07
2019-05-10T04:19:57.152Z,9.60
2019-05-10T04:22:24.933Z,11.11
2019-05-10T04:24:52.065Z,11.13
2019-05-10T04:27:31.342Z,11.15
2019-05-10T04:29:48.098Z,11.17
2019-05-10T04:32:15.509Z,11.19
2019-05-10T04:34:42.901Z,11.21
2019-05-10T04:37:09.775Z,11.22
2019-05-10T04:39:38.017Z,11.25
2019-05-10T04:42:05.191Z,11.27
2019-05-10T04:44:32.165Z,11.27
2019-05-10T04:46:59.573Z,11.29
2019-05-10T04:49:26.836Z,11.30
2019-05-10T04:51:54.075Z,11.31
2019-05-10T04:54:21.334Z,11.34
2019-05-10T04:56:48.381Z,11.34
2019-05-10T04:59:15.335Z,11.31
2019-05-10T05:01:42.103Z,11.30
2019-05-10T05:04:09.025Z,11.29
2019-05-10T05:06:36.068Z,11.28
2019-05-10T05:09:05.189Z,11.21
2019-05-10T05:11:32.196Z,11.19
2019-05-10T05:13:59.730Z,11.11
2019-05-10T05:16:27.009Z,11.08
2019-05-10T05:18:54.566Z,11.03
2019-05-10T05:21:21.300Z,11.02
2019-05-10T05:23:49.324Z,11.03
2019-05-10T05:26:16.382Z,11.01
2019-05-10T05:28:43.555Z,11.03
2019-05-10T05:31:10.838Z,11.04
2019-05-10T05:33:38.044Z,11.08
2019-05-10T05:36:04.933Z,11.10
2019-05-10T05:38:32.102Z,11.14
2019-05-10T05:40:59.227Z,11.16
2019-05-10T05:43:26.082Z,11.20
2019-05-10T05:45:53.371Z,11.26
2019-05-10T05:48:21.510Z,11.32
2019-05-10T05:50:49.046Z,11.41
2019-05-10T05:53:15.844Z,11.53
2019-05-10T05:55:42.710Z,11.79
2019-05-10T05:58:25.267Z,11.97
2019-05-10T06:00:44.535Z,12.11
2019-05-10T06:03:07.259Z,12.21
2019-05-10T06:05:37.138Z,12.28
2019-05-10T06:08:02.565Z,12.32
2019-05-10T06:10:30.395Z,12.31
2019-05-10T06:12:57.917Z,12.32
2019-05-10T06:15:29.089Z,12.34
2019-05-10T06:17:57.131Z,12.39
2019-05-10T06:20:23.502Z,12.44
2019-05-10T06:23:05.545Z,12.47
2019-05-10T06:25:28.819Z,12.42
2019-05-10T06:27:47.645Z,12.42
2019-05-10T06:30:14.845Z,12.44
2019-05-10T06:32:42.236Z,12.44
2019-05-10T06:35:14.090Z,12.39
2019-05-10T06:37:37.653Z,12.40
2019-05-10T06:40:06.034Z,12.42
2019-05-10T06:42:34.673Z,12.34
2019-05-10T06:45:04.967Z,12.27
2019-05-10T06:47:30.865Z,12.23
2019-05-10T06:49:58.061Z,12.27
2019-05-10T06:52:28.033Z,12.33
2019-05-10T06:54:53.879Z,12.44
2019-05-10T06:57:20.758Z,12.53
2019-05-10T06:59:47.597Z,12.66
2019-05-10T07:02:14.651Z,12.76
2019-05-10T07:04:42.341Z,12.89
2019-05-10T07:07:10.376Z,13.06
2019-05-10T07:10:01.722Z,13.26
2019-05-10T07:12:09.330Z,13.56
2019-05-10T07:14:36.461Z,13.89
2019-05-10T07:17:04.482Z,13.93
2019-05-10T07:19:34.846Z,13.96
2019-05-10T07:22:00.688Z,14.21
2019-05-10T07:24:27.518Z,14.33
2019-05-10T07:26:56.489Z,14.33
2019-05-10T07:29:30.194Z,14.36
2019-05-10T07:31:52.662Z,14.33
2019-05-10T07:34:19.489Z,12.93
2019-05-10T07:36:46.526Z,14.28
2019-05-10T07:39:13.254Z,14.37
2019-05-10T07:41:40.312Z,14.51
2019-05-10T07:44:10.365Z,14.77
2019-05-10T07:46:40.042Z,15.02
2019-05-10T07:49:04.736Z,15.32
2019-05-10T07:51:31.748Z,15.62
2019-05-10T07:54:04.509Z,15.85
2019-05-10T07:56:27.405Z,16.05
2019-05-10T07:58:54.148Z,16.09
2019-05-10T08:01:29.089Z,16.04
2019-05-10T08:03:52.480Z,16.04
2019-05-10T08:06:19.470Z,16.16
2019-05-10T08:08:49.470Z,16.33
2019-05-10T08:11:15.695Z,16.41
2019-05-10T08:13:42.812Z,16.50
2019-05-10T08:16:11.917Z,16.46
2019-05-10T08:18:41.974Z,16.45
2019-05-10T08:21:20.943Z,16.53
2019-05-10T08:23:35.916Z,16.55
2019-05-10T08:26:04.494Z,15.18
2019-05-10T08:28:36.056Z,16.58
2019-05-10T08:31:02.506Z,16.60
2019-05-10T08:33:32.682Z,16.84
2019-05-10T08:36:02.890Z,16.89
2019-05-10T08:38:28.004Z,16.97
2019-05-10T08:40:54.880Z,17.30
2019-05-10T08:43:24.626Z,17.77
2019-05-10T08:45:52.419Z,17.70
2019-05-10T08:48:19.435Z,17.34
2019-05-10T08:50:55.996Z,16.98
2019-05-10T08:53:16.541Z,16.70
2019-05-10T08:55:43.569Z,16.72
2019-05-10T08:58:12.410Z,17.24
2019-05-10T09:00:53.325Z,17.81
2019-05-10T09:03:10.424Z,18.24
2019-05-10T09:05:39.743Z,17.10
2019-05-10T09:08:06.218Z,18.49
2019-05-10T09:10:34.538Z,18.94
2019-05-10T09:13:03.331Z,18.75
2019-05-10T09:15:30.327Z,18.29
2019-05-10T09:17:58.362Z,17.94
2019-05-10T09:20:26.751Z,17.53
2019-05-10T09:22:53.477Z,17.09
2019-05-10T09:25:29.231Z,16.83
2019-05-10T09:27:49.732Z,16.62
2019-05-10T09:30:21.869Z,16.50
2019-05-10T09:32:51.914Z,16.34
2019-05-10T09:35:18.210Z,16.37
2019-05-10T09:37:47.648Z,16.58
2019-05-10T09:40:14.057Z,16.26
2019-05-10T09:42:43.698Z,16.11
2019-05-10T09:45:10.542Z,15.85
2019-05-10T09:47:39.359Z,15.71
2019-05-10T09:50:06.287Z,15.77
2019-05-10T09:52:33.238Z,15.80
2019-05-10T09:55:04.115Z,15.84
2019-05-10T09:57:32.016Z,15.89
2019-05-10T09:59:57.581Z,15.89
2019-05-10T10:02:32.769Z,15.91
2019-05-10T10:04:53.271Z,15.88
2019-05-10T10:07:24.185Z,15.87
2019-05-10T10:09:48.865Z,16.02
2019-05-10T10:12:17.497Z,16.17
2019-05-10T10:14:44.402Z,15.68
2019-05-10T10:17:11.118Z,15.11
2019-05-10T10:19:40.693Z,16.53
2019-05-10T10:22:11.036Z,16.80
2019-05-10T10:24:38.658Z,17.26
2019-05-10T10:27:04.410Z,17.56
2019-05-10T10:29:34.034Z,18.54
2019-05-10T10:32:00.054Z,18.98
2019-05-10T10:34:27.396Z,19.36
2019-05-10T10:36:54.185Z,19.42
2019-05-10T10:39:22.872Z,17.93
2019-05-10T10:41:52.079Z,18.61
2019-05-10T10:44:18.555Z,18.28
2019-05-10T10:46:47.749Z,18.02
2019-05-10T10:49:14.720Z,17.83
2019-05-10T10:51:41.827Z,17.74
2019-05-10T10:54:09.162Z,17.58
2019-05-10T10:56:37.425Z,16.35
2019-05-10T10:59:04.331Z,17.53
2019-05-10T11:01:46.125Z,17.59
2019-05-10T11:04:03.561Z,17.62
2019-05-10T11:06:29.762Z,17.87
2019-05-10T11:08:56.486Z,17.78
2019-05-10T11:11:23.393Z,17.73
2019-05-10T11:13:57.968Z,17.67
2019-05-10T11:16:20.756Z,17.55
2019-05-10T11:18:47.650Z,17.44
2019-05-10T11:21:14.395Z,17.28
2019-05-10T11:23:42.033Z,17.19
2019-05-10T11:26:10.895Z,17.10
2019-05-10T11:28:43.457Z,17.12
2019-05-10T11:31:06.496Z,16.90
2019-05-10T11:33:33.988Z,16.72
2019-05-10T11:36:06.476Z,16.48
2019-05-10T11:38:31.702Z,16.07
2019-05-10T11:40:58.656Z,15.87
2019-05-10T11:43:27.020Z,15.56
2019-05-10T11:45:53.814Z,15.45
2019-05-10T11:48:21.594Z,15.55
2019-05-10T11:50:51.110Z,15.77
2019-05-10T11:53:17.666Z,16.14
2019-05-10T11:55:45.138Z,16.38
2019-05-10T11:58:13.229Z,16.52
2019-05-10T12:00:41.396Z,16.48
2019-05-10T12:03:14.819Z,15.14
2019-05-10T12:05:37.430Z,16.34
2019-05-10T12:08:04.630Z,16.54
2019-05-10T12:10:32.159Z,16.86
2019-05-10T12:13:11.309Z,15.93
2019-05-10T12:15:31.480Z,17.42
2019-05-10T12:17:59.455Z,17.55
2019-05-10T12:20:39.383Z,17.64
2019-05-10T12:22:55.209Z,17.48
2019-05-10T12:25:41.928Z,17.59
2019-05-10T12:27:52.431Z,17.88
2019-05-10T12:30:21.531Z,18.13
2019-05-10T12:33:02.222Z,18.12
2019-05-10T12:35:17.607Z,17.91
2019-05-10T12:37:48.882Z,17.79
2019-05-10T12:40:15.233Z,17.71
2019-05-10T12:42:42.451Z,17.44
2019-05-10T12:45:09.415Z,17.23
2019-05-10T12:47:36.974Z,17.22
2019-05-10T12:50:08.342Z,17.20
2019-05-10T12:52:35.108Z,17.27
2019-05-10T12:55:01.974Z,17.24
2019-05-10T12:57:28.850Z,17.19
2019-05-10T12:59:55.671Z,16.98
2019-05-10T13:02:22.952Z,16.53
2019-05-10T13:04:52.582Z,16.82
2019-05-10T13:07:18.642Z,16.90
2019-05-10T13:09:46.507Z,16.97
2019-05-10T13:12:14.308Z,17.05
2019-05-10T13:14:46.122Z,16.95
2019-05-10T13:17:11.975Z,16.88
2019-05-10T13:19:38.893Z,16.87
2019-05-10T13:22:07.428Z,17.14
2019-05-10T13:24:34.690Z,17.44
2019-05-10T13:27:03.622Z,17.65
2019-05-10T13:29:30.685Z,17.58
2019-05-10T13:31:57.529Z,17.66
2019-05-10T13:34:24.824Z,17.94
2019-05-10T13:36:51.785Z,17.81
2019-05-10T13:39:24.759Z,17.67
2019-05-10T13:41:48.090Z,17.92
2019-05-10T13:44:14.841Z,18.16
2019-05-10T13:46:41.711Z,18.54
2019-05-10T13:49:08.546Z,19.07
2019-05-10T13:51:35.705Z,19.27
2019-05-10T13:54:05.110Z,19.10
2019-05-10T13:56:31.596Z,18.89
2019-05-10T13:59:13.849Z,19.03
2019-05-10T14:01:27.258Z,19.39
2019-05-10T14:04:00.808Z,19.68
2019-05-10T14:06:22.825Z,19.48
2019-05-10T14:08:50.543Z,19.52
2019-05-10T14:11:17.639Z,19.46
2019-05-10T14:13:44.449Z,19.60
2019-05-10T14:16:18.107Z,19.62
2019-05-10T14:18:41.281Z,19.51
2019-05-10T14:21:08.050Z,19.28
2019-05-10T14:23:37.218Z,19.19
2019-05-10T14:26:09.234Z,19.07
2019-05-10T14:28:32.740Z,18.93
2019-05-10T14:30:59.453Z,18.90
2019-05-10T14:33:26.628Z,19.06
2019-05-10T14:35:55.036Z,19.24
2019-05-10T14:38:23.057Z,19.33
2019-05-10T14:40:50.422Z,19.04
2019-05-10T14:43:17.280Z,18.83
2019-05-10T14:45:44.119Z,18.54
2019-05-10T14:48:11.514Z,18.42
2019-05-10T14:50:38.252Z,18.27
2019-05-10T14:53:05.169Z,18.16
2019-05-10T14:55:34.774Z,18.10
2019-05-10T14:58:00.948Z,18.29
2019-05-10T15:00:27.781Z,18.82
2019-05-10T15:02:56.788Z,19.41
2019-05-10T15:05:23.548Z,19.64
2019-05-10T15:07:51.301Z,19.57
2019-05-10T15:10:19.388Z,19.19
2019-05-10T15:12:46.258Z,18.98
2019-05-10T15:15:13.980Z,18.78
2019-05-10T15:17:41.117Z,18.82
2019-05-10T15:20:08.524Z,18.77
2019-05-10T15:22:35.290Z,17.61
2019-05-10T15:25:02.052Z,18.95
2019-05-10T15:27:29.165Z,19.05
2019-05-10T15:29:58.829Z,19.19
2019-05-10T15:32:24.725Z,19.23
2019-05-10T15:35:05.128Z,19.23
2019-05-10T15:37:21.110Z,19.27
2019-05-10T15:39:49.253Z,18.11
2019-05-10T15:42:16.668Z,19.21
2019-05-10T15:44:43.426Z,19.18
2019-05-10T15:47:14.388Z,19.09
2019-05-10T15:49:39.271Z,18.88
2019-05-10T15:52:16.800Z,18.79
2019-05-10T15:54:37.952Z,18.78
2019-05-10T15:57:03.790Z,18.80
2019-05-10T15:59:30.629Z,18.80
2019-05-10T16:01:57.437Z,18.86
2019-05-10T16:04:24.517Z,18.97
2019-05-10T16:06:51.253Z,18.94
2019-05-10T16:09:19.338Z,18.96
2019-05-10T16:11:46.423Z,19.12
2019-05-10T16:14:13.268Z,19.07
2019-05-10T16:16:40.370Z,18.96
2019-05-10T16:19:07.112Z,18.93
2019-05-10T16:21:33.974Z,18.84
2019-05-10T16:24:00.914Z,18.78
2019-05-10T16:26:28.013Z,18.64
2019-05-10T16:29:01.793Z,18.14
2019-05-10T16:31:23.490Z,17.66
2019-05-10T16:33:53.593Z,17.50
2019-05-10T16:36:22.921Z,17.43
2019-05-10T16:38:48.310Z,17.44
2019-05-10T16:41:15.887Z,17.53
2019-05-10T16:43:43.459Z,17.53
2019-05-10T16:46:10.449Z,17.32
2019-05-10T16:48:37.293Z,17.09
2019-05-10T16:51:09.848Z,17.05
2019-05-10T16:53:37.693Z,16.99
2019-05-10T16:56:01.762Z,16.99
2019-05-10T16:58:28.786Z,16.92
2019-05-10T17:00:55.510Z,16.73
2019-05-10T17:03:22.573Z,16.42
2019-05-10T17:05:53.650Z,16.12
2019-05-10T17:08:20.683Z,15.81
2019-05-10T17:10:47.831Z,14.46
2019-05-10T17:13:14.569Z,14.45
2019-05-10T17:15:41.709Z,15.89
2019-05-10T17:18:10.523Z,15.96
2019-05-10T17:20:37.935Z,16.01
2019-05-10T17:23:08.929Z,16.04
2019-05-10T17:25:35.421Z,16.20
2019-05-10T17:28:02.557Z,16.27
2019-05-10T17:30:30.335Z,16.23
2019-05-10T17:32:57.807Z,16.04
2019-05-10T17:35:25.824Z,15.87
2019-05-10T17:37:53.115Z,15.69
2019-05-10T17:40:21.586Z,15.52
2019-05-10T17:42:51.492Z,15.34
2019-05-10T17:45:18.894Z,15.19
2019-05-10T17:47:46.117Z,15.09
2019-05-10T17:50:13.032Z,15.00
2019-05-10T17:52:39.761Z,14.98
2019-05-10T17:55:10.904Z,14.93
2019-05-10T17:57:36.217Z,14.88
2019-05-10T18:00:07.506Z,14.84
2019-05-10T18:02:34.824Z,14.79
2019-05-10T18:05:06.359Z,12.97
2019-05-10T18:07:30.204Z,14.69
2019-05-10T18:09:57.014Z,13.31
2019-05-10T18:12:26.933Z,14.69
2019-05-10T18:14:55.967Z,14.73
2019-05-10T18:17:25.881Z,14.72
2019-05-10T18:19:56.627Z,14.58
2019-05-10T18:22:20.829Z,14.48
2019-05-10T18:24:47.626Z,14.41
2019-05-10T18:27:14.614Z,14.37
2019-05-10T18:29:41.641Z,14.29
2019-05-10T18:32:10.971Z,14.20
2019-05-10T18:34:38.074Z,14.14
2019-05-10T18:37:04.804Z,14.12
2019-05-10T18:39:32.155Z,14.08
2019-05-10T18:41:58.998Z,14.04
2019-05-10T18:44:25.911Z,13.95
2019-05-10T18:46:53.065Z,13.87
2019-05-10T18:49:19.812Z,13.78
2019-05-10T18:51:46.935Z,13.73
2019-05-10T18:54:14.031Z,13.66
2019-05-10T18:56:40.832Z,13.60
2019-05-10T18:59:09.339Z,13.55
2019-05-10T19:01:38.855Z,13.46
2019-05-10T19:04:07.218Z,13.42
2019-05-10T19:06:33.804Z,13.38
2019-05-10T19:09:00.545Z,13.33
2019-05-10T19:11:33.155Z,13.26
2019-05-10T19:13:56.222Z,13.21
2019-05-10T19:16:26.141Z,13.13
2019-05-10T19:18:56.093Z,13.06
2019-05-10T19:21:24.999Z,13.00
2019-05-10T19:23:52.192Z,12.92
2019-05-10T19:26:18.446Z,12.82
2019-05-10T19:28:45.662Z,12.73
2019-05-10T19:31:12.509Z,12.64
2019-05-10T19:33:39.390Z,12.55
2019-05-10T19:36:12.166Z,12.48
2019-05-10T19:38:36.101Z,12.40
2019-05-10T19:41:03.099Z,12.30
2019-05-10T19:43:29.981Z,12.18
2019-05-10T19:45:57.877Z,12.07
2019-05-10T19:48:29.259Z,11.99
2019-05-10T19:50:54.222Z,11.92
2019-05-10T19:53:21.506Z,11.83
2019-05-10T19:55:51.480Z,11.71
2019-05-10T19:58:16.969Z,11.63
2019-05-10T20:00:43.705Z,11.53
2019-05-10T20:03:10.971Z,11.43
2019-05-10T20:05:37.794Z,11.33
2019-05-10T20:08:04.819Z,11.24
2019-05-10T20:10:31.640Z,11.18
2019-05-10T20:12:58.462Z,11.12
2019-05-10T20:15:25.716Z,11.06
2019-05-10T20:17:52.701Z,11.00
2019-05-10T20:20:19.775Z,10.93
2019-05-10T20:22:47.483Z,10.87
2019-05-10T20:25:14.539Z,10.80
2019-05-10T20:27:41.892Z,10.73
2019-05-10T20:30:09.068Z,10.69
2019-05-10T20:32:36.211Z,10.63
2019-05-10T20:35:05.158Z,10.55
2019-05-10T20:37:32.009Z,10.54
2019-05-10T20:39:59.015Z,10.55
2019-05-10T20:42:25.774Z,10.54
2019-05-10T20:45:06.707Z,10.53
2019-05-10T20:47:22.022Z,8.99
2019-05-10T20:49:49.065Z,10.49
2019-05-10T20:52:15.814Z,10.47
2019-05-10T20:54:42.697Z,10.45
2019-05-10T20:57:09.569Z,10.45
2019-05-10T20:59:36.365Z,10.43
2019-05-10T21:02:03.275Z,10.40
2019-05-10T21:04:30.232Z,10.36
2019-05-10T21:06:56.984Z,10.31
2019-05-10T21:09:24.466Z,10.25
2019-05-10T21:11:51.217Z,10.23
2019-05-10T21:14:17.940Z,10.20
2019-05-10T21:16:44.996Z,10.20
2019-05-10T21:19:11.711Z,10.17
2019-05-10T21:21:38.473Z,10.14
2019-05-10T21:24:05.301Z,10.14
2019-05-10T21:26:32.550Z,10.17
2019-05-10T21:28:59.322Z,10.19
2019-05-10T21:31:26.555Z,10.20
2019-05-10T21:34:08.614Z,10.21
2019-05-10T21:36:24.649Z,10.21
2019-05-10T21:38:51.546Z,10.21
2019-05-10T21:41:18.978Z,10.22
2019-05-10T21:43:46.027Z,8.90
2019-05-10T21:46:12.749Z,10.24
2019-05-10T21:48:39.438Z,10.27
2019-05-10T21:51:06.493Z,10.27
2019-05-10T21:53:33.650Z,10.30
2019-05-10T21:56:00.521Z,10.29
2019-05-10T21:58:27.774Z,10.30
2019-05-10T22:00:54.626Z,10.29
2019-05-10T22:03:21.462Z,10.29
2019-05-10T22:05:48.697Z,10.30
2019-05-10T22:08:15.467Z,10.33
2019-05-10T22:10:42.202Z,10.35
2019-05-10T22:13:09.272Z,10.36
2019-05-10T22:15:37.167Z,10.35
2019-05-10T22:18:05.226Z,10.35
2019-05-10T22:20:33.581Z,10.33
2019-05-10T22:23:00.354Z,10.30
2019-05-10T22:25:27.162Z,10.30
2019-05-10T22:27:54.747Z,10.29
2019-05-10T22:30:21.713Z,10.27
2019-05-10T22:32:48.468Z,10.25
2019-05-10T22:35:15.620Z,10.24
2019-05-10T22:37:42.342Z,10.24
2019-05-10T22:40:09.086Z,10.20
2019-05-10T22:42:36.038Z,10.16
2019-05-10T22:45:03.590Z,10.15
2019-05-10T22:47:31.150Z,10.15
2019-05-10T22:49:58.315Z,10.15
2019-05-10T22:52:25.162Z,10.17
2019-05-10T22:54:52.578Z,10.20
2019-05-10T22:57:20.254Z,10.22
2019-05-10T22:59:47.697Z,10.25
2019-05-10T23:02:15.679Z,10.23
2019-05-10T23:04:43.101Z,10.24
2019-05-10T23:07:09.886Z,10.23
2019-05-10T23:09:37.633Z,10.25
2019-05-10T23:12:05.137Z,10.25
2019-05-10T23:14:32.857Z,10.26
2019-05-10T23:17:00.372Z,10.27
2019-05-10T23:19:27.789Z,10.30
2019-05-10T23:21:54.575Z,10.31
2019-05-10T23:24:23.717Z,10.32
2019-05-10T23:26:50.437Z,10.33
2019-05-10T23:29:17.313Z,10.32
2019-05-10T23:31:44.822Z,10.33
2019-05-10T23:34:12.152Z,10.30
2019-05-10T23:36:39.853Z,10.30
2019-05-10T23:39:07.741Z,10.29
2019-05-10T23:41:35.413Z,10.29
2019-05-10T23:44:03.244Z,10.32
2019-05-10T23:46:31.183Z,10.30
2019-05-10T23:48:58.563Z,10.31
2019-05-10T23:51:26.044Z,10.30
2019-05-10T23:53:54.101Z,10.29
2019-05-10T23:56:21.959Z,10.25
2019-05-10T23:58:49.936Z,10.24
